International Virtual Aviation Organisation

Russian Federation and Kazakhstan MCD

 

Карточка аэропорта UUEE

Внимание!
Информация на этой странице в стадии наполнения.
Если вы не увидели какой-то информации, или заметили неточность - пожалуйста сообщите нам!
Спасибо!
Команда RU-STAFF
Название аэропортаШереметьево
Название аэропорта (англ.)Sheremetyevo
Превышение630 ft. (192 m.)
Координаты55°58.416', 37°24.75'
Высота перехода1200 m
Эшелон переходаBy ATC
Коды ответчика1501-1537
Зона ОрВДМосква РПИ (UUWV)
Данные METARUUEE 260530Z 16002MPS 090V220 CAVOK 02/M06 Q1002 R24L/190057 R24C/190057 NOSIG
Проноз погоды (TAF)UUEE 260454Z 2606/2706 20002MPS 9000 BKN011 TX05/2612Z TNM03/2703Z TEMPO 2606/2618 3100 -SHRASN BKN015CB BECMG 2612/2616 26002MPS
NOTAMshow/hide NOTAM
AWOS   TABLE

Информация о ВПП

ВПП Длина ВПП (м.) Покрытие Курс ВПП Частота ILS
06R3700Бетон64109.1
24L3700Бетон244110.5
06C3550Бетон64108.1
24C3550Бетон244111.3

Диспетчерские позиции

Позывной Наименование органа УВД Частота
UUEE_TWRШереметьево-Вышка131.500
UUEE_DELШереметьево-Деливери120.875
UUEE_GNDШереметьево-Руление121.900
UUEE_R_APPШереметьево-Круг118.100
UUEEFM1Шереметьево Машина Сопровождения121.900



Спутниковое изображение